Time;durP1;ratioP1;P1;durP2;ratioP2;P2;SDS_P1;SDS_P2;PMS_P1;PMS_P2;Temp;Humidity;BMP_temperature;BMP_pressure;BME280_temperature;BME280_humidity;BME280_pressure;Samples;Min_cycle;Max_cycle;Signal;HPM_P1;HPM_P2
2022/10/27 00:02:14;;;;;;;;;;;14.50;86.20;;;;;;5036051;28;19917;-83
2022/10/27 00:04:40;;;;;;;;;;;14.50;86.20;;;;;;5035247;28;19909;-80
2022/10/27 00:07:05;;;;;;;;;;;14.50;86.30;;;;;;5036576;28;19905;-81
2022/10/27 00:09:31;;;;;;;;;;;14.50;86.30;;;;;;5023068;28;20371;-83
2022/10/27 00:11:56;;;;;;;;;;;14.50;86.40;;;;;;5008114;28;19916;-83
2022/10/27 00:14:22;;;;;;;;;;;14.50;86.50;;;;;;5012619;28;19917;-83
2022/10/27 00:16:51;;;;;;;;;;;14.50;86.60;;;;;;5012252;28;20433;-83
2022/10/27 00:19:17;;;;;;;;;;;14.50;86.50;;;;;;5010680;28;20008;-83
2022/10/27 00:21:42;;;;;;;;;;;14.40;86.70;;;;;;5019826;28;19959;-82
2022/10/27 00:24:07;;;;;;;;;;;14.40;86.80;;;;;;5027524;28;19917;-83
2022/10/27 00:26:33;;;;;;;;;;;14.40;86.70;;;;;;5051240;28;19917;-82
2022/10/27 00:28:58;;;;;;;;;;;14.30;86.80;;;;;;5031698;28;19913;-83
2022/10/27 00:31:24;;;;;;;;;;;14.20;86.90;;;;;;5031325;28;19914;-83
2022/10/27 00:33:50;;;;;;;;;;;14.20;87.00;;;;;;5019672;28;20366;-82
2022/10/27 00:36:16;;;;;;;;;;;14.20;86.80;;;;;;5033283;28;19917;-83
2022/10/27 00:38:42;;;;;;;;;;;14.10;87.00;;;;;;5013044;28;19959;-81
2022/10/27 00:41:21;;;;;;;;;;;14.10;86.90;;;;;;5016387;28;20319;-83
2022/10/27 00:43:46;;;;;;;;;;;14.10;87.00;;;;;;5013909;28;19924;-83
2022/10/27 00:46:19;;;;;;;;;;;14.10;86.90;;;;;;5030044;28;20291;-83
2022/10/27 00:48:44;;;;;;;;;;;14.10;87.00;;;;;;5012669;28;19917;-83
2022/10/27 00:51:13;;;;;;;;;;;14.10;87.10;;;;;;5005567;28;19981;-83
2022/10/27 00:53:39;;;;;;;;;;;14.10;87.40;;;;;;5030930;28;19914;-82
2022/10/27 00:56:04;;;;;;;;;;;14.10;87.50;;;;;;5032001;28;20047;-83
2022/10/27 00:58:32;;;;;;;;;;;14.10;87.50;;;;;;5010252;28;21277;-82
2022/10/27 01:00:57;;;;;;;;;;;14.10;87.70;;;;;;5018004;28;20297;-82
2022/10/27 01:03:23;;;;;;;;;;;14.10;87.70;;;;;;5010231;28;19921;-82
2022/10/27 01:05:48;;;;;;;;;;;14.10;87.60;;;;;;5014474;28;20003;-82
2022/10/27 01:08:16;;;;;;;;;;;14.20;87.70;;;;;;5031701;28;20371;-81
2022/10/27 01:10:41;;;;;;;;;;;14.20;87.80;;;;;;5012042;28;19913;-83
2022/10/27 01:13:07;;;;;;;;;;;14.20;87.70;;;;;;5012741;28;19987;-82
2022/10/27 01:15:32;;;;;;;;;;;14.30;87.70;;;;;;5031495;28;19964;-83
2022/10/27 01:18:07;;;;;;;;;;;14.30;87.70;;;;;;5012311;28;19921;-82
2022/10/27 01:20:45;;;;;;;;;;;14.30;87.70;;;;;;5013729;28;19909;-83
2022/10/27 01:23:22;;;;;;;;;;;14.20;87.50;;;;;;5012940;28;20375;-83
2022/10/27 01:26:03;;;;;;;;;;;14.30;87.70;;;;;;5013693;28;20349;-83
2022/10/27 01:28:41;;;;;;;;;;;14.20;87.60;;;;;;5014539;28;19968;-83
2022/10/27 01:31:09;;;;;;;;;;;14.30;87.50;;;;;;5032158;28;19958;-81
2022/10/27 01:33:45;;;;;;;;;;;14.30;87.40;;;;;;5037724;28;19968;-82
2022/10/27 01:36:19;;;;;;;;;;;14.30;87.40;;;;;;5013717;28;20390;-82
2022/10/27 01:38:44;;;;;;;;;;;14.30;87.50;;;;;;5013034;28;19917;-81
2022/10/27 01:41:17;;;;;;;;;;;14.40;87.50;;;;;;5017264;28;19939;-83
2022/10/27 01:43:45;;;;;;;;;;;14.30;87.50;;;;;;5030805;28;19926;-81
2022/10/27 01:46:10;;;;;;;;;;;14.30;87.50;;;;;;5022653;28;19972;-82
2022/10/27 01:48:36;;;;;;;;;;;14.30;87.50;;;;;;5051257;28;19921;-81
2022/10/27 01:51:02;;;;;;;;;;;14.30;87.30;;;;;;5026291;28;20005;-81
2022/10/27 01:53:29;;;;;;;;;;;14.30;87.50;;;;;;5039475;28;19917;-82
2022/10/27 01:56:04;;;;;;;;;;;14.30;87.60;;;;;;5038802;28;19913;-83
2022/10/27 01:58:45;;;;;;;;;;;14.20;87.60;;;;;;5016365;28;20390;-83
2022/10/27 02:01:16;;;;;;;;;;;14.20;87.70;;;;;;5017953;28;19976;-81
2022/10/27 02:03:42;;;;;;;;;;;14.20;87.70;;;;;;5016413;28;19944;-80
2022/10/27 02:06:10;;;;;;;;;;;14.20;87.80;;;;;;5033966;28;19917;-83
2022/10/27 02:08:35;;;;;;;;;;;14.30;87.60;;;;;;5034789;23;20427;-83
2022/10/27 02:11:05;;;;;;;;;;;14.20;87.60;;;;;;5035736;28;19913;-82
2022/10/27 02:13:32;;;;;;;;;;;14.20;87.60;;;;;;5011975;28;19925;-82
2022/10/27 02:16:00;;;;;;;;;;;14.30;87.40;;;;;;5008554;28;19941;-82
2022/10/27 02:18:34;;;;;;;;;;;14.20;87.50;;;;;;5011993;28;20373;-82
2022/10/27 02:21:01;;;;;;;;;;;14.30;87.20;;;;;;5008720;28;19920;-83
2022/10/27 02:23:27;;;;;;;;;;;14.30;87.40;;;;;;5014399;28;20297;-82
2022/10/27 02:26:00;;;;;;;;;;;14.30;87.30;;;;;;5017814;28;19922;-82
2022/10/27 02:28:28;;;;;;;;;;;14.30;87.20;;;;;;5009526;28;19949;-82
2022/10/27 02:30:55;;;;;;;;;;;14.30;87.20;;;;;;5016346;28;20004;-82
2022/10/27 02:33:20;;;;;;;;;;;14.30;87.20;;;;;;5016032;28;19913;-83
2022/10/27 02:35:46;;;;;;;;;;;14.30;87.20;;;;;;5012845;28;19925;-82
2022/10/27 02:38:12;;;;;;;;;;;14.30;87.00;;;;;;5015856;28;19967;-82
2022/10/27 02:40:38;;;;;;;;;;;14.30;87.00;;;;;;5008173;28;20012;-81
2022/10/27 02:43:03;;;;;;;;;;;14.30;87.10;;;;;;5014386;28;20379;-82
2022/10/27 02:45:29;;;;;;;;;;;14.20;87.20;;;;;;5013840;28;20409;-83
2022/10/27 02:47:54;;;;;;;;;;;14.30;87.20;;;;;;5014442;28;20404;-83
2022/10/27 02:50:19;;;;;;;;;;;14.30;87.20;;;;;;5014296;28;19920;-83
2022/10/27 02:52:45;;;;;;;;;;;14.30;86.90;;;;;;5014486;28;19940;-84
2022/10/27 02:55:10;;;;;;;;;;;14.30;86.90;;;;;;5017010;28;19914;-83
2022/10/27 02:57:36;;;;;;;;;;;14.20;87.10;;;;;;5014739;28;19918;-83
2022/10/27 03:00:02;;;;;;;;;;;14.20;87.20;;;;;;5018974;28;19921;-84
2022/10/27 03:02:27;;;;;;;;;;;14.20;87.50;;;;;;5008690;28;19959;-83
2022/10/27 03:04:53;;;;;;;;;;;14.10;87.50;;;;;;5017599;28;20016;-82
2022/10/27 03:07:19;;;;;;;;;;;14.10;87.60;;;;;;5014938;28;19917;-82
2022/10/27 03:09:44;;;;;;;;;;;14.10;87.70;;;;;;5011061;28;20017;-82
2022/10/27 03:12:10;;;;;;;;;;;14.10;87.70;;;;;;5010822;28;19941;-83
2022/10/27 03:14:35;;;;;;;;;;;14.10;87.80;;;;;;5014335;28;20273;-82
2022/10/27 03:17:01;;;;;;;;;;;14.00;87.80;;;;;;5019890;28;19913;-83
2022/10/27 03:19:26;;;;;;;;;;;13.90;87.90;;;;;;5021037;28;19913;-82
2022/10/27 03:21:52;;;;;;;;;;;13.80;88.00;;;;;;5012874;28;19913;-83
2022/10/27 03:24:17;;;;;;;;;;;13.80;87.90;;;;;;5015954;28;19963;-83
2022/10/27 03:26:43;;;;;;;;;;;13.80;87.90;;;;;;5013263;28;19917;-82
2022/10/27 03:29:08;;;;;;;;;;;13.80;88.00;;;;;;5013340;28;19957;-82
2022/10/27 03:31:34;;;;;;;;;;;13.70;87.90;;;;;;5013950;28;19925;-82
2022/10/27 03:33:59;;;;;;;;;;;13.70;87.80;;;;;;5015411;28;19968;-82
2022/10/27 03:36:25;;;;;;;;;;;13.70;87.90;;;;;;5014913;28;19940;-82
2022/10/27 03:38:50;;;;;;;;;;;13.60;87.90;;;;;;5030215;28;19920;-82
2022/10/27 03:41:15;;;;;;;;;;;13.60;88.00;;;;;;5013660;28;19955;-83
2022/10/27 03:43:41;;;;;;;;;;;13.60;88.00;;;;;;5012321;28;19920;-82
2022/10/27 03:46:07;;;;;;;;;;;13.60;88.00;;;;;;5012136;28;19928;-82
2022/10/27 03:48:33;;;;;;;;;;;13.60;87.90;;;;;;5024605;28;20424;-82
2022/10/27 03:50:58;;;;;;;;;;;13.60;87.90;;;;;;5012187;28;20012;-83
2022/10/27 03:53:24;;;;;;;;;;;13.50;87.90;;;;;;5012774;28;20285;-82
2022/10/27 03:55:49;;;;;;;;;;;13.50;88.10;;;;;;5013592;28;19920;-82
2022/10/27 03:58:16;;;;;;;;;;;13.50;88.10;;;;;;5013904;28;20004;-82
2022/10/27 04:00:41;;;;;;;;;;;13.50;88.10;;;;;;5011843;28;20013;-83
2022/10/27 04:03:06;;;;;;;;;;;13.40;88.20;;;;;;5010050;28;20376;-83
2022/10/27 04:05:32;;;;;;;;;;;13.30;88.20;;;;;;5010296;28;19924;-83
2022/10/27 04:07:58;;;;;;;;;;;13.40;88.50;;;;;;5011773;28;19917;-83
2022/10/27 04:10:24;;;;;;;;;;;13.40;88.50;;;;;;5005631;28;19968;-83
2022/10/27 04:12:50;;;;;;;;;;;13.40;88.60;;;;;;5018824;28;19921;-83
2022/10/27 04:15:16;;;;;;;;;;;13.40;88.40;;;;;;5008963;28;19945;-82
2022/10/27 04:17:42;;;;;;;;;;;13.40;88.50;;;;;;5024699;28;19914;-82
2022/10/27 04:20:07;;;;;;;;;;;13.40;88.40;;;;;;5013665;28;19973;-82
2022/10/27 04:22:33;;;;;;;;;;;13.30;88.70;;;;;;5014099;28;19914;-82
2022/10/27 04:24:58;;;;;;;;;;;13.40;88.40;;;;;;5014653;28;19936;-82
2022/10/27 04:27:24;;;;;;;;;;;13.40;88.30;;;;;;5013840;28;19921;-82
2022/10/27 04:29:49;;;;;;;;;;;13.30;88.20;;;;;;5014037;28;19910;-82
2022/10/27 04:32:14;;;;;;;;;;;13.30;88.30;;;;;;5015273;28;20012;-82
2022/10/27 04:34:40;;;;;;;;;;;13.20;88.40;;;;;;5024857;28;19932;-83
2022/10/27 04:37:05;;;;;;;;;;;13.20;88.30;;;;;;5014449;28;19913;-83
2022/10/27 04:39:31;;;;;;;;;;;13.20;87.70;;;;;;5020457;28;19988;-83
2022/10/27 04:41:56;;;;;;;;;;;13.10;88.30;;;;;;5007210;28;20518;-81
2022/10/27 04:44:22;;;;;;;;;;;13.10;88.40;;;;;;5008846;28;19920;-82
2022/10/27 04:46:47;;;;;;;;;;;13.10;88.20;;;;;;5010082;28;19968;-81
2022/10/27 04:49:13;;;;;;;;;;;13.10;88.20;;;;;;5017441;28;19997;-82
2022/10/27 04:51:38;;;;;;;;;;;13.10;88.50;;;;;;5012771;28;19914;-82
2022/10/27 04:54:04;;;;;;;;;;;13.10;88.40;;;;;;5016258;28;19944;-83
2022/10/27 04:56:29;;;;;;;;;;;13.10;88.50;;;;;;5006915;28;19963;-83
2022/10/27 04:58:55;;;;;;;;;;;13.00;88.60;;;;;;5008909;28;19929;-82
2022/10/27 05:01:22;;;;;;;;;;;13.10;88.50;;;;;;5009445;28;19921;-82
2022/10/27 05:03:48;;;;;;;;;;;13.00;88.30;;;;;;5006844;28;19960;-85
2022/10/27 05:06:14;;;;;;;;;;;13.00;88.30;;;;;;5009144;28;20011;-84
2022/10/27 05:08:39;;;;;;;;;;;13.00;88.10;;;;;;5010257;28;19925;-83
2022/10/27 05:11:05;;;;;;;;;;;13.00;88.20;;;;;;5027204;28;20368;-84
2022/10/27 05:13:30;;;;;;;;;;;13.00;88.20;;;;;;5017230;28;20261;-83
2022/10/27 05:15:59;;;;;;;;;;;12.90;88.50;;;;;;5011669;28;19949;-85
2022/10/27 05:18:25;;;;;;;;;;;12.90;88.50;;;;;;5004117;28;20406;-84
2022/10/27 05:20:50;;;;;;;;;;;12.90;88.20;;;;;;5009891;28;19917;-84
2022/10/27 05:23:16;;;;;;;;;;;12.90;88.60;;;;;;5007766;28;19921;-85
2022/10/27 05:25:41;;;;;;;;;;;12.90;88.40;;;;;;5007862;28;19918;-84
2022/10/27 05:28:08;;;;;;;;;;;12.90;88.30;;;;;;5011234;28;19967;-84
2022/10/27 05:30:33;;;;;;;;;;;12.90;88.40;;;;;;5007784;28;20040;-83
2022/10/27 05:32:59;;;;;;;;;;;12.80;88.30;;;;;;5022989;28;19952;-86
2022/10/27 05:35:25;;;;;;;;;;;12.90;88.10;;;;;;5004327;28;19922;-84
2022/10/27 05:37:50;;;;;;;;;;;12.90;87.90;;;;;;5007514;28;19921;-82
2022/10/27 05:40:16;;;;;;;;;;;13.00;87.50;;;;;;5029800;28;19935;-84
2022/10/27 05:42:54;;;;;;;;;;;12.80;87.80;;;;;;5013117;28;19914;-85
2022/10/27 05:45:20;;;;;;;;;;;12.70;88.10;;;;;;5009341;28;19960;-85
2022/10/27 05:47:46;;;;;;;;;;;12.70;88.30;;;;;;5009381;28;20000;-85
2022/10/27 05:50:11;;;;;;;;;;;12.80;88.30;;;;;;5015464;28;19949;-84
2022/10/27 05:52:37;;;;;;;;;;;12.70;88.00;;;;;;5015075;28;19913;-84
2022/10/27 05:55:02;;;;;;;;;;;12.80;87.80;;;;;;5014691;28;20288;-84
2022/10/27 05:57:28;;;;;;;;;;;12.70;87.70;;;;;;5006597;28;20004;-85
2022/10/27 05:59:54;;;;;;;;;;;12.60;87.50;;;;;;5012219;28;19921;-84
2022/10/27 06:02:19;;;;;;;;;;;12.70;87.70;;;;;;5007438;28;19917;-84
2022/10/27 06:04:45;;;;;;;;;;;12.70;87.40;;;;;;5009938;28;19914;-83
2022/10/27 06:07:10;;;;;;;;;;;12.60;87.40;;;;;;5012660;28;19914;-84
2022/10/27 06:09:35;;;;;;;;;;;12.60;87.70;;;;;;5008963;28;20007;-84
2022/10/27 06:12:01;;;;;;;;;;;12.60;87.60;;;;;;5010416;28;19913;-84
2022/10/27 06:14:26;;;;;;;;;;;12.50;88.20;;;;;;5009236;28;19997;-83
2022/10/27 06:16:52;;;;;;;;;;;12.60;88.20;;;;;;5009618;28;19924;-84
2022/10/27 06:19:17;;;;;;;;;;;12.60;87.80;;;;;;5010412;28;19953;-84
2022/10/27 06:21:43;;;;;;;;;;;12.60;87.50;;;;;;5011070;28;19921;-85
2022/10/27 06:24:08;;;;;;;;;;;12.50;87.50;;;;;;5010646;28;20436;-83
2022/10/27 06:26:34;;;;;;;;;;;12.50;87.80;;;;;;5007680;28;19925;-83
2022/10/27 06:28:59;;;;;;;;;;;12.50;87.60;;;;;;5010282;28;20008;-84
2022/10/27 06:31:25;;;;;;;;;;;12.60;87.60;;;;;;5011858;28;19917;-84
2022/10/27 06:33:50;;;;;;;;;;;12.50;87.80;;;;;;5015300;28;19959;-84
2022/10/27 06:36:16;;;;;;;;;;;12.50;88.00;;;;;;5013824;28;19918;-84
2022/10/27 06:38:41;;;;;;;;;;;12.60;88.20;;;;;;5016134;28;19913;-83
2022/10/27 06:41:06;;;;;;;;;;;12.50;88.00;;;;;;5015775;28;19917;-83
2022/10/27 06:43:32;;;;;;;;;;;12.50;88.10;;;;;;5012685;28;19913;-84
2022/10/27 06:45:57;;;;;;;;;;;12.50;88.50;;;;;;5017238;28;19932;-84
2022/10/27 06:48:23;;;;;;;;;;;12.50;88.30;;;;;;5017506;28;19922;-84
2022/10/27 06:50:48;;;;;;;;;;;12.50;88.30;;;;;;5014551;28;19920;-84
2022/10/27 06:53:14;;;;;;;;;;;12.60;88.10;;;;;;5009908;28;19913;-84
2022/10/27 06:55:40;;;;;;;;;;;12.60;88.20;;;;;;5010334;28;19924;-85
2022/10/27 06:58:05;;;;;;;;;;;12.60;88.00;;;;;;5011498;28;19914;-84
2022/10/27 07:00:30;;;;;;;;;;;12.50;88.40;;;;;;5012948;28;19996;-84
2022/10/27 07:02:56;;;;;;;;;;;12.50;88.40;;;;;;5013329;28;19914;-85
2022/10/27 07:05:21;;;;;;;;;;;12.50;88.30;;;;;;5010623;28;20222;-84
2022/10/27 07:07:47;;;;;;;;;;;12.50;88.20;;;;;;5012014;28;19917;-84
2022/10/27 07:10:13;;;;;;;;;;;12.50;88.00;;;;;;5008817;28;19918;-85
2022/10/27 07:12:38;;;;;;;;;;;12.50;88.00;;;;;;5010902;28;19914;-85
2022/10/27 07:15:04;;;;;;;;;;;12.60;88.20;;;;;;5008315;28;19920;-84
2022/10/27 07:17:29;;;;;;;;;;;12.60;88.30;;;;;;5011690;28;19914;-85
2022/10/27 07:19:55;;;;;;;;;;;12.60;88.30;;;;;;5010774;28;19956;-82
2022/10/27 07:22:20;;;;;;;;;;;12.60;88.20;;;;;;5008789;28;20442;-84
2022/10/27 07:24:46;;;;;;;;;;;12.70;88.20;;;;;;5011233;28;19959;-86
2022/10/27 07:27:11;;;;;;;;;;;12.80;87.90;;;;;;5012286;28;19913;-86
2022/10/27 07:29:37;;;;;;;;;;;12.80;88.20;;;;;;5011669;28;19917;-86
2022/10/27 07:32:02;;;;;;;;;;;12.80;88.40;;;;;;5005638;28;19917;-86
2022/10/27 07:34:28;;;;;;;;;;;12.80;88.50;;;;;;5009378;28;19961;-86
2022/10/27 07:36:53;;;;;;;;;;;12.90;88.70;;;;;;5011981;28;19941;-86
2022/10/27 07:39:19;;;;;;;;;;;12.90;88.90;;;;;;5008724;28;19917;-85
2022/10/27 07:41:44;;;;;;;;;;;13.00;88.90;;;;;;5010542;28;20385;-85
2022/10/27 07:44:10;;;;;;;;;;;13.00;88.80;;;;;;5009165;28;20270;-86
2022/10/27 07:46:35;;;;;;;;;;;13.10;88.80;;;;;;5012449;28;19957;-85
2022/10/27 07:49:01;;;;;;;;;;;13.20;88.60;;;;;;5010096;28;19920;-85
2022/10/27 07:51:26;;;;;;;;;;;13.30;88.70;;;;;;5006943;28;19968;-85
2022/10/27 07:53:52;;;;;;;;;;;13.40;88.60;;;;;;5021026;28;19917;-85
2022/10/27 07:56:17;;;;;;;;;;;13.60;88.60;;;;;;5032408;28;19921;-85
2022/10/27 07:58:47;;;;;;;;;;;13.60;88.40;;;;;;5014182;28;19909;-86
2022/10/27 08:01:12;;;;;;;;;;;13.80;88.20;;;;;;5003635;28;19920;-86
2022/10/27 08:03:38;;;;;;;;;;;14.00;88.00;;;;;;5008147;28;20383;-87
2022/10/27 08:06:03;;;;;;;;;;;14.10;87.90;;;;;;5007028;28;19924;-86
2022/10/27 08:08:29;;;;;;;;;;;14.10;87.80;;;;;;5030281;22;20075;-85
2022/10/27 08:10:55;;;;;;;;;;;14.20;87.80;;;;;;5004684;28;19914;-85
2022/10/27 08:13:20;;;;;;;;;;;14.40;88.40;;;;;;5034356;28;19961;-82
2022/10/27 08:15:46;;;;;;;;;;;14.50;88.20;;;;;;5031279;28;19914;-84
2022/10/27 08:18:11;;;;;;;;;;;14.60;88.10;;;;;;5025300;28;19913;-86
2022/10/27 08:20:39;;;;;;;;;;;14.70;88.00;;;;;;5031473;28;19920;-84
2022/10/27 08:23:05;;;;;;;;;;;14.80;87.60;;;;;;5013642;28;20362;-83
2022/10/27 08:25:31;;;;;;;;;;;15.00;87.30;;;;;;5040599;28;19925;-83
2022/10/27 08:27:57;;;;;;;;;;;15.00;87.10;;;;;;5025237;28;19938;-83
2022/10/27 08:30:24;;;;;;;;;;;15.10;86.80;;;;;;5013230;28;19928;-82
2022/10/27 08:32:54;;;;;;;;;;;15.10;86.60;;;;;;5035019;28;20318;-82
2022/10/27 08:35:19;;;;;;;;;;;15.20;86.10;;;;;;5031738;28;19921;-82
2022/10/27 08:37:44;;;;;;;;;;;15.30;85.70;;;;;;5033343;28;19909;-80
2022/10/27 08:40:10;;;;;;;;;;;15.30;84.80;;;;;;5011963;28;19917;-81
2022/10/27 08:42:41;;;;;;;;;;;15.40;85.10;;;;;;5049083;28;19963;-80
2022/10/27 08:45:19;;;;;;;;;;;15.60;85.40;;;;;;5033147;28;20383;-80
2022/10/27 08:47:44;;;;;;;;;;;15.80;84.70;;;;;;5037857;28;19920;-79
2022/10/27 08:50:15;;;;;;;;;;;15.90;84.30;;;;;;5032160;28;19909;-81
2022/10/27 08:52:48;;;;;;;;;;;16.00;84.10;;;;;;5014236;28;19996;-80
2022/10/27 08:55:13;;;;;;;;;;;16.30;82.70;;;;;;5046280;28;19917;-80
2022/10/27 08:57:41;;;;;;;;;;;16.40;81.50;;;;;;5035360;28;20041;-80
2022/10/27 09:00:13;;;;;;;;;;;16.50;81.60;;;;;;5013459;28;19956;-82
2022/10/27 09:02:47;;;;;;;;;;;16.60;80.60;;;;;;5023474;28;19914;-82
2022/10/27 09:05:12;;;;;;;;;;;16.80;79.30;;;;;;5014098;28;19921;-83
2022/10/27 09:07:41;;;;;;;;;;;16.90;79.50;;;;;;5012381;28;19909;-83
2022/10/27 09:10:30;;;;;;;;;;;17.00;78.30;;;;;;5035709;28;19917;-83
2022/10/27 09:13:06;;;;;;;;;;;17.20;77.90;;;;;;5051013;28;19952;-82
2022/10/27 09:15:36;;;;;;;;;;;17.30;77.20;;;;;;5034829;28;20007;-82
2022/10/27 09:18:01;;;;;;;;;;;17.40;77.10;;;;;;5029222;28;20040;-82
2022/10/27 09:20:34;;;;;;;;;;;17.30;76.90;;;;;;5060351;28;20382;-82
2022/10/27 09:23:02;;;;;;;;;;;17.60;76.00;;;;;;5035435;28;20371;-91
2022/10/27 09:25:27;;;;;;;;;;;17.70;75.60;;;;;;5035553;28;19917;-87
2022/10/27 09:27:55;;;;;;;;;;;17.80;75.30;;;;;;5044985;28;19935;-82
2022/10/27 09:30:21;;;;;;;;;;;18.00;73.90;;;;;;5049264;28;19913;-81
2022/10/27 09:32:55;;;;;;;;;;;17.90;74.60;;;;;;5054970;28;20387;-83
2022/10/27 09:35:24;;;;;;;;;;;18.10;73.90;;;;;;5041870;28;19914;-86
2022/10/27 09:37:55;;;;;;;;;;;18.20;74.00;;;;;;5023705;28;20313;-83
2022/10/27 09:40:22;;;;;;;;;;;18.20;73.40;;;;;;5020234;28;19913;-81
2022/10/27 09:42:48;;;;;;;;;;;18.10;73.90;;;;;;5021673;28;19917;-83
2022/10/27 09:45:18;;;;;;;;;;;18.20;73.10;;;;;;5031517;28;19917;-86
2022/10/27 09:47:46;;;;;;;;;;;18.40;71.70;;;;;;5040609;28;20314;-83
2022/10/27 09:50:35;;;;;;;;;;;18.50;71.60;;;;;;5036212;28;19944;-83
2022/10/27 09:53:01;;;;;;;;;;;18.50;72.50;;;;;;5018864;28;20345;-84
2022/10/27 09:55:46;;;;;;;;;;;18.40;72.80;;;;;;5041533;28;19917;-84
2022/10/27 09:58:12;;;;;;;;;;;18.60;71.50;;;;;;5029701;28;19919;-84
2022/10/27 10:00:37;;;;;;;;;;;18.70;71.30;;;;;;5024020;28;19909;-84
2022/10/27 10:03:04;;;;;;;;;;;18.60;72.00;;;;;;5022564;28;20004;-83
2022/10/27 10:05:31;;;;;;;;;;;18.60;72.10;;;;;;5021469;28;19913;-83
2022/10/27 10:08:13;;;;;;;;;;;18.70;71.30;;;;;;5038606;28;19917;-82
2022/10/27 10:10:39;;;;;;;;;;;18.80;71.00;;;;;;5036572;28;19913;-84
2022/10/27 10:13:09;;;;;;;;;;;18.90;70.30;;;;;;5032175;28;19916;-83
2022/10/27 10:15:44;;;;;;;;;;;18.90;69.60;;;;;;5037278;28;19968;-82
2022/10/27 10:18:19;;;;;;;;;;;19.00;69.00;;;;;;5025275;28;19908;-84
2022/10/27 10:20:44;;;;;;;;;;;19.10;68.70;;;;;;5064444;28;19897;-83
2022/10/27 10:23:18;;;;;;;;;;;19.10;68.30;;;;;;5035255;28;19931;-83
2022/10/27 10:25:46;;;;;;;;;;;19.20;68.60;;;;;;5041381;28;20016;-83
2022/10/27 10:28:18;;;;;;;;;;;19.30;68.80;;;;;;5021890;28;19913;-85
2022/10/27 10:30:47;;;;;;;;;;;19.20;68.00;;;;;;5036908;28;19921;-84
2022/10/27 10:33:14;;;;;;;;;;;19.30;67.90;;;;;;5042353;28;19912;-84
2022/10/27 10:35:40;;;;;;;;;;;19.20;69.00;;;;;;5046096;28;19917;-85
2022/10/27 10:38:27;;;;;;;;;;;19.20;69.60;;;;;;5018890;28;20409;-85
2022/10/27 10:41:02;;;;;;;;;;;19.30;69.00;;;;;;5032395;28;19971;-88
2022/10/27 10:50:08;;;;;;;;;;;19.60;68.70;;;;;;4992297;28;20078;-86
2022/10/27 10:52:58;;;;;;;;;;;19.70;67.90;;;;;;5006966;28;19913;-87
2022/10/27 10:59:02;;;;;;;;;;;19.90;68.40;;;;;;4976517;28;20052;-87
2022/10/27 11:01:48;;;;;;;;;;;19.70;68.90;;;;;;4988650;28;19914;-86
2022/10/27 11:04:48;;;;;;;;;;;19.70;68.90;;;;;;5032064;28;20004;-85
2022/10/27 11:07:39;;;;;;;;;;;19.70;68.70;;;;;;5029773;28;19917;-88
2022/10/27 11:10:58;;;;;;;;;;;19.90;68.50;;;;;;5017967;28;20391;-87
2022/10/27 11:14:06;;;;;;;;;;;;;;;;;;;;;
2022/10/27 11:17:04;;;;;;;;;;;;;;;;;;;;;
2022/10/27 11:22:45;;;;;;;;;;;;;;;;;;;;;
2022/10/27 11:25:28;;;;;;;;;;;20.10;68.00;;;;;;5033677;28;19917;-87
2022/10/27 11:31:44;;;;;;;;;;;20.10;67.50;;;;;;5033777;28;19916;-87
2022/10/27 11:49:56;;;;;;;;;;;20.50;66.00;;;;;;5038705;22;20032;-77
2022/10/27 11:52:39;;;;;;;;;;;20.50;66.20;;;;;;5024432;28;19919;-78
2022/10/27 11:55:06;;;;;;;;;;;20.50;66.40;;;;;;5029738;28;19956;-77
2022/10/27 11:57:55;;;;;;;;;;;20.60;65.80;;;;;;5032767;28;19917;-78
2022/10/27 12:00:22;;;;;;;;;;;20.60;66.40;;;;;;5029382;28;19948;-77
2022/10/27 12:02:48;;;;;;;;;;;20.50;66.90;;;;;;5029811;28;20269;-78
2022/10/27 12:05:26;;;;;;;;;;;20.60;66.20;;;;;;5029454;28;19921;-77
2022/10/27 12:08:07;;;;;;;;;;;20.70;65.40;;;;;;5028466;28;19991;-77
2022/10/27 12:10:33;;;;;;;;;;;20.80;65.90;;;;;;5029930;28;19919;-77
2022/10/27 12:13:13;;;;;;;;;;;20.80;64.60;;;;;;5020103;28;19909;-78
2022/10/27 12:15:45;;;;;;;;;;;20.90;64.90;;;;;;5027810;28;19914;-80
2022/10/27 12:18:14;;;;;;;;;;;20.90;64.40;;;;;;5034932;28;19937;-78
2022/10/27 12:20:39;;;;;;;;;;;20.90;65.50;;;;;;5026619;28;19959;-78
2022/10/27 12:23:07;;;;;;;;;;;20.80;65.20;;;;;;5034939;28;19918;-78
2022/10/27 12:25:36;;;;;;;;;;;20.80;65.00;;;;;;5033833;28;19940;-78
2022/10/27 12:28:03;;;;;;;;;;;20.80;65.50;;;;;;5033138;28;20399;-77
2022/10/27 12:30:30;;;;;;;;;;;20.80;66.20;;;;;;5029062;28;20376;-77
2022/10/27 12:33:02;;;;;;;;;;;20.90;65.50;;;;;;5030047;28;19917;-77
2022/10/27 12:35:43;;;;;;;;;;;21.00;65.60;;;;;;5028451;28;20004;-77
2022/10/27 12:38:12;;;;;;;;;;;20.80;66.80;;;;;;5031306;28;19949;-78
2022/10/27 12:40:41;;;;;;;;;;;20.80;65.50;;;;;;5030898;28;20288;-78
2022/10/27 12:43:33;;;;;;;;;;;20.90;65.20;;;;;;5029228;28;19921;-77
2022/10/27 12:46:10;;;;;;;;;;;21.00;65.40;;;;;;5027900;28;19917;-78
2022/10/27 12:48:46;;;;;;;;;;;20.90;65.90;;;;;;5030162;28;19932;-78
2022/10/27 12:51:15;;;;;;;;;;;20.80;65.20;;;;;;5030840;28;19940;-78
2022/10/27 12:53:40;;;;;;;;;;;20.70;65.60;;;;;;5026502;28;19924;-77
2022/10/27 12:56:28;;;;;;;;;;;20.70;65.90;;;;;;5023811;28;19914;-78
2022/10/27 12:58:53;;;;;;;;;;;20.70;65.40;;;;;;5034137;28;19929;-78
2022/10/27 13:01:25;;;;;;;;;;;20.60;66.50;;;;;;5040557;28;19989;-77
2022/10/27 13:04:03;;;;;;;;;;;20.70;65.90;;;;;;5032957;28;19913;-78
2022/10/27 13:06:38;;;;;;;;;;;20.80;66.00;;;;;;5029893;28;19917;-78
2022/10/27 13:09:03;;;;;;;;;;;20.80;65.60;;;;;;5053827;28;19951;-78
2022/10/27 13:11:42;;;;;;;;;;;20.90;65.30;;;;;;5052709;28;19916;-77
2022/10/27 13:14:16;;;;;;;;;;;21.00;65.30;;;;;;5052472;28;19909;-78
2022/10/27 13:17:05;;;;;;;;;;;20.90;65.30;;;;;;5041469;28;19921;-78
2022/10/27 13:19:48;;;;;;;;;;;20.80;65.40;;;;;;5042348;28;20006;-77
2022/10/27 13:22:14;;;;;;;;;;;20.80;65.50;;;;;;5032380;28;20005;-77
2022/10/27 13:24:51;;;;;;;;;;;20.80;65.80;;;;;;5033587;28;19912;-78
2022/10/27 13:27:19;;;;;;;;;;;20.70;66.40;;;;;;5032534;28;19974;-78
2022/10/27 13:29:58;;;;;;;;;;;20.80;65.60;;;;;;5034680;28;19917;-77
2022/10/27 13:32:28;;;;;;;;;;;20.80;66.00;;;;;;5043945;28;19920;-77
2022/10/27 13:34:59;;;;;;;;;;;21.00;64.80;;;;;;5045330;28;19909;-78
2022/10/27 13:38:00;;;;;;;;;;;21.00;65.10;;;;;;5032433;28;19959;-77
2022/10/27 13:40:26;;;;;;;;;;;21.00;64.80;;;;;;5011504;28;19913;-77
2022/10/27 13:42:52;;;;;;;;;;;21.00;64.10;;;;;;5037086;28;19913;-77
2022/10/27 13:45:27;;;;;;;;;;;21.10;63.80;;;;;;5047932;28;20376;-77
2022/10/27 13:48:07;;;;;;;;;;;21.10;64.20;;;;;;5052470;28;20288;-77
2022/10/27 13:50:34;;;;;;;;;;;21.00;65.50;;;;;;5035537;28;19909;-77
2022/10/27 13:53:22;;;;;;;;;;;21.10;64.40;;;;;;5043180;28;19913;-78
2022/10/27 13:55:58;;;;;;;;;;;21.00;64.60;;;;;;5038451;28;20352;-77
2022/10/27 13:58:23;;;;;;;;;;;21.00;65.20;;;;;;5029542;28;19916;-77
2022/10/27 14:01:08;;;;;;;;;;;20.90;66.20;;;;;;5030146;28;20293;-77
2022/10/27 14:03:36;;;;;;;;;;;21.10;65.60;;;;;;5032076;28;19913;-77
2022/10/27 14:06:08;;;;;;;;;;;21.10;65.80;;;;;;5033807;28;20030;-77
2022/10/27 14:08:45;;;;;;;;;;;21.10;65.50;;;;;;5046397;22;19925;-86
2022/10/27 14:11:12;;;;;;;;;;;21.10;65.50;;;;;;4989124;28;19945;-84
2022/10/27 14:13:40;;;;;;;;;;;21.10;65.90;;;;;;4963460;28;20035;-85
2022/10/27 14:16:06;;;;;;;;;;;21.10;65.80;;;;;;4966836;28;20123;-85
2022/10/27 14:18:36;;;;;;;;;;;21.10;65.90;;;;;;4960681;28;19913;-85
2022/10/27 14:21:16;;;;;;;;;;;21.10;66.40;;;;;;4968731;28;19917;-86
2022/10/27 14:23:41;;;;;;;;;;;21.00;66.70;;;;;;4967458;28;19921;-84
2022/10/27 14:26:26;;;;;;;;;;;21.00;66.70;;;;;;4974550;28;20317;-85
2022/10/27 14:28:51;;;;;;;;;;;21.00;66.50;;;;;;4956527;28;19956;-84
2022/10/27 14:31:19;;;;;;;;;;;21.00;66.80;;;;;;4966116;28;20000;-84
2022/10/27 14:33:44;;;;;;;;;;;20.90;67.60;;;;;;4961412;28;20414;-84
2022/10/27 14:36:13;;;;;;;;;;;20.80;67.60;;;;;;4965238;28;20660;-84
2022/10/27 14:38:41;;;;;;;;;;;20.90;67.40;;;;;;4966679;28;20393;-84
2022/10/27 14:41:20;;;;;;;;;;;20.90;67.00;;;;;;4971988;28;19913;-83
2022/10/27 14:43:54;;;;;;;;;;;20.80;67.20;;;;;;4976725;28;20683;-85
2022/10/27 14:46:21;;;;;;;;;;;20.90;67.00;;;;;;4980057;28;19901;-86
2022/10/27 14:48:52;;;;;;;;;;;20.80;67.20;;;;;;4977168;28;19920;-85
2022/10/27 14:51:18;;;;;;;;;;;20.60;68.30;;;;;;4972613;28;19921;-85
2022/10/27 14:53:49;;;;;;;;;;;20.50;68.60;;;;;;4974267;28;19909;-86
2022/10/27 14:56:40;;;;;;;;;;;20.80;67.80;;;;;;4979363;28;19909;-86
2022/10/27 14:59:16;;;;;;;;;;;20.50;68.40;;;;;;4961228;28;19963;-85
2022/10/27 15:01:49;;;;;;;;;;;20.60;68.40;;;;;;4974144;28;20441;-85
2022/10/27 15:07:33;;;;;;;;;;;20.40;69.30;;;;;;4981465;28;20087;-85
2022/10/27 15:10:17;;;;;;;;;;;20.30;69.20;;;;;;4976998;28;19929;-86